createdAt,value
2022-08-28T00:03:38.194Z,14.07
2022-08-28T00:09:01.167Z,18.47
2022-08-28T00:14:25.291Z,16.30
2022-08-28T00:19:48.711Z,17.33
2022-08-28T00:25:12.661Z,18.67
2022-08-28T00:30:49.786Z,20.80
2022-08-28T00:36:13.734Z,20.45
2022-08-28T00:41:37.134Z,18.67
2022-08-28T00:47:05.176Z,15.93
2022-08-28T00:52:29.064Z,21.03
2022-08-28T00:58:07.354Z,21.03
2022-08-28T01:03:29.646Z,17.90
2022-08-28T01:08:54.665Z,20.67
2022-08-28T01:14:22.600Z,16.48
2022-08-28T01:19:54.683Z,19.10
2022-08-28T01:25:24.788Z,18.03
2022-08-28T01:36:58.537Z,19.73
2022-08-28T01:42:22.571Z,17.62
2022-08-28T01:47:45.427Z,20.43
2022-08-28T01:53:07.845Z,21.47
2022-08-28T01:58:37.429Z,19.27
2022-08-28T02:03:56.825Z,22.22
2022-08-28T02:09:20.261Z,20.53
2022-08-28T02:14:42.501Z,25.27
2022-08-28T02:20:04.936Z,19.57
2022-08-28T02:25:28.315Z,17.98
2022-08-28T02:30:51.111Z,20.63
2022-08-28T02:36:14.332Z,18.55
2022-08-28T02:41:36.582Z,20.63
2022-08-28T02:46:58.895Z,20.15
2022-08-28T02:52:22.668Z,17.73
2022-08-28T02:57:45.772Z,19.00
2022-08-28T03:03:08.502Z,18.27
2022-08-28T03:08:32.605Z,19.43
2022-08-28T03:13:56.084Z,18.17
2022-08-28T03:19:18.272Z,18.17
2022-08-28T03:24:41.621Z,17.87
2022-08-28T03:30:03.833Z,19.85
2022-08-28T03:35:27.110Z,19.65
2022-08-28T03:40:53.007Z,18.10
2022-08-28T03:46:23.867Z,18.87
2022-08-28T03:51:48.592Z,21.00
2022-08-28T03:57:11.406Z,21.00
2022-08-28T04:02:34.242Z,16.73
2022-08-28T04:07:56.613Z,17.98
2022-08-28T04:13:19.833Z,14.57
2022-08-28T04:18:43.396Z,18.33
2022-08-28T04:24:09.697Z,22.33
2022-08-28T04:29:32.169Z,18.10
2022-08-28T04:34:56.215Z,20.82
2022-08-28T04:40:20.048Z,22.67
2022-08-28T04:45:46.021Z,18.27
2022-08-28T04:51:10.508Z,22.67
2022-08-28T04:56:33.735Z,21.77
2022-08-28T05:01:56.149Z,21.00
2022-08-28T05:07:18.408Z,19.13
2022-08-28T05:12:44.089Z,19.40
2022-08-28T05:18:06.263Z,21.83
2022-08-28T05:23:29.401Z,27.00
2022-08-28T05:28:53.284Z,29.67
2022-08-28T05:34:16.548Z,34.10
2022-08-28T05:39:38.773Z,32.67
2022-08-28T05:45:01.731Z,31.55
2022-08-28T05:50:25.419Z,34.73
2022-08-28T05:55:51.648Z,29.30
2022-08-28T06:01:19.815Z,33.15
2022-08-28T06:06:44.301Z,30.17
2022-08-28T06:12:07.992Z,31.00
2022-08-28T06:17:31.457Z,30.32
2022-08-28T06:22:55.363Z,28.92
2022-08-28T06:28:18.489Z,26.27
2022-08-28T06:33:42.701Z,23.22
2022-08-28T06:39:05.453Z,26.45
2022-08-28T06:44:33.578Z,24.47
2022-08-28T06:49:56.606Z,21.33
2022-08-28T06:55:19.127Z,26.62
2022-08-28T07:00:42.533Z,28.35
2022-08-28T07:06:07.357Z,24.82
2022-08-28T07:11:37.357Z,23.92
2022-08-28T07:17:01.262Z,24.05
2022-08-28T07:22:23.477Z,22.82
2022-08-28T07:27:45.706Z,26.12
2022-08-28T07:33:07.912Z,21.80
2022-08-28T07:38:30.615Z,22.20
2022-08-28T07:44:10.783Z,23.42
2022-08-28T07:49:37.085Z,25.65
2022-08-28T07:54:59.445Z,19.25
2022-08-28T08:00:23.082Z,18.27
2022-08-28T08:05:45.347Z,18.75
2022-08-28T08:11:21.113Z,20.30
2022-08-28T08:16:47.956Z,19.25
2022-08-28T08:22:10.136Z,19.70
2022-08-28T08:27:33.516Z,18.10
2022-08-28T08:32:56.955Z,20.10
2022-08-28T08:38:21.190Z,18.42
2022-08-28T08:43:47.456Z,26.68
2022-08-28T08:49:12.660Z,17.42
2022-08-28T08:54:36.492Z,21.10
2022-08-28T08:59:59.356Z,20.02
2022-08-28T09:05:30.108Z,14.75
2022-08-28T09:11:01.059Z,17.70
2022-08-28T09:16:31.823Z,19.42
2022-08-28T09:21:57.587Z,19.12
2022-08-28T09:27:30.773Z,16.73
2022-08-28T09:33:05.347Z,21.27
2022-08-28T09:38:44.677Z,17.60
2022-08-28T09:44:06.927Z,15.75
2022-08-28T09:49:43.139Z,19.50
2022-08-28T09:55:07.860Z,17.25
2022-08-28T10:00:31.120Z,18.48
2022-08-28T10:06:06.747Z,19.67
2022-08-28T10:11:42.595Z,15.53
2022-08-28T10:17:12.418Z,19.50
2022-08-28T10:22:47.773Z,13.68
2022-08-28T10:28:37.124Z,13.15
2022-08-28T10:34:47.307Z,20.00
2022-08-28T10:40:25.547Z,18.53
2022-08-28T10:45:52.214Z,16.17
2022-08-28T10:51:35.460Z,17.82
2022-08-28T10:57:00.132Z,13.20
2022-08-28T11:02:26.612Z,12.98
2022-08-28T11:07:55.856Z,13.35
2022-08-28T11:13:19.823Z,14.10
2022-08-28T11:18:51.055Z,13.25
2022-08-28T11:30:36.662Z,11.57
2022-08-28T11:36:04.020Z,14.63
2022-08-28T11:42:06.381Z,11.80
2022-08-28T11:47:55.913Z,12.67
2022-08-28T11:58:50.898Z,18.50
2022-08-28T12:04:17.813Z,14.40
2022-08-28T12:10:05.123Z,18.57
2022-08-28T12:15:43.300Z,11.77
2022-08-28T12:32:25.199Z,17.37
2022-08-28T12:38:03.720Z,17.57
2022-08-28T12:43:34.682Z,15.57
2022-08-28T12:49:16.741Z,13.83
2022-08-28T12:54:40.094Z,18.27
2022-08-28T13:00:07.861Z,15.48
2022-08-28T13:05:40.301Z,15.53
2022-08-28T13:11:14.219Z,19.70
2022-08-28T13:16:55.479Z,15.10
2022-08-28T13:22:40.614Z,12.55
2022-08-28T13:28:20.200Z,15.37
2022-08-28T13:33:44.244Z,13.87
2022-08-28T13:39:06.973Z,14.37
2022-08-28T13:44:42.692Z,13.47
2022-08-28T13:50:06.384Z,13.98
2022-08-28T13:55:38.756Z,16.90
2022-08-28T14:01:03.547Z,19.07
2022-08-28T14:06:31.823Z,17.83
2022-08-28T14:11:56.525Z,19.03
2022-08-28T14:17:21.960Z,15.77
2022-08-28T14:22:44.242Z,14.63
2022-08-28T14:28:06.425Z,18.57
2022-08-28T14:33:29.258Z,20.30
2022-08-28T14:38:54.711Z,15.67
2022-08-28T14:44:17.824Z,14.23
2022-08-28T14:49:41.096Z,12.90
2022-08-28T14:55:03.610Z,16.90
2022-08-28T15:00:26.888Z,16.13
2022-08-28T15:05:49.741Z,16.87
2022-08-28T15:16:52.727Z,14.77
2022-08-28T15:22:15.153Z,13.00
2022-08-28T15:27:39.855Z,12.03
2022-08-28T15:33:02.772Z,13.80
2022-08-28T15:38:25.550Z,16.20
2022-08-28T15:43:48.023Z,11.53
2022-08-28T15:49:12.798Z,12.77
2022-08-28T15:54:37.209Z,10.40
2022-08-28T16:00:00.354Z,16.03
2022-08-28T16:05:26.941Z,12.33
2022-08-28T16:10:50.139Z,11.43
2022-08-28T16:16:12.601Z,10.48
2022-08-28T16:21:35.249Z,11.08
2022-08-28T16:26:57.944Z,11.20
2022-08-28T16:32:20.373Z,10.80
2022-08-28T16:37:42.878Z,8.05
2022-08-28T16:43:07.441Z,12.18
2022-08-28T16:48:31.094Z,8.13
2022-08-28T16:53:53.922Z,9.15
2022-08-28T16:59:23.233Z,9.48
2022-08-28T17:04:44.910Z,9.23
2022-08-28T17:10:09.361Z,11.30
2022-08-28T17:15:31.767Z,12.82
2022-08-28T17:21:12.007Z,10.23
2022-08-28T17:26:35.221Z,13.13
2022-08-28T17:31:57.612Z,14.95
2022-08-28T17:37:21.194Z,8.13
2022-08-28T17:42:44.957Z,9.18
2022-08-28T17:48:07.891Z,5.87
2022-08-28T17:53:30.852Z,7.80
2022-08-28T17:58:53.147Z,5.77
2022-08-28T18:04:21.467Z,7.35
2022-08-28T18:09:40.919Z,6.43
2022-08-28T18:15:04.333Z,8.37
2022-08-28T18:20:28.162Z,7.87
2022-08-28T18:25:51.813Z,10.30
2022-08-28T18:31:14.388Z,6.33
2022-08-28T18:36:39.736Z,6.80
2022-08-28T18:42:01.964Z,18.13
2022-08-28T18:47:24.311Z,8.87
2022-08-28T18:52:46.844Z,9.20
2022-08-28T18:58:15.161Z,10.40
2022-08-28T19:03:35.299Z,7.50
2022-08-28T19:08:57.574Z,6.87
2022-08-28T19:14:20.449Z,4.62
2022-08-28T19:19:45.892Z,5.78
2022-08-28T19:25:17.203Z,7.00
2022-08-28T19:30:38.871Z,9.58
2022-08-28T19:36:01.776Z,20.30
2022-08-28T19:41:26.781Z,8.13
2022-08-28T19:46:50.566Z,5.97
2022-08-28T19:52:13.453Z,6.58
2022-08-28T19:57:35.766Z,6.42
2022-08-28T20:02:58.533Z,7.72
2022-08-28T20:08:21.601Z,6.97
2022-08-28T20:13:44.767Z,9.13
2022-08-28T20:19:08.249Z,8.35
2022-08-28T20:24:33.895Z,7.47
2022-08-28T20:29:56.940Z,13.95
2022-08-28T20:35:22.174Z,9.00
2022-08-28T20:40:44.817Z,7.72
2022-08-28T20:46:08.871Z,7.40
2022-08-28T20:51:48.911Z,8.73
2022-08-28T20:57:14.178Z,7.70
2022-08-28T21:02:39.839Z,5.95
2022-08-28T21:08:02.110Z,6.95
2022-08-28T21:13:25.558Z,8.23
2022-08-28T21:19:13.981Z,8.58
2022-08-28T21:24:15.015Z,8.33
2022-08-28T21:29:39.251Z,7.57
2022-08-28T21:35:02.561Z,6.20
2022-08-28T21:40:26.702Z,6.57
2022-08-28T21:45:49.103Z,6.87
2022-08-28T21:51:15.765Z,7.57
2022-08-28T21:56:40.090Z,7.87
2022-08-28T22:02:02.784Z,10.97
2022-08-28T22:07:26.023Z,7.83
2022-08-28T22:12:48.256Z,8.07
2022-08-28T22:18:10.916Z,9.90
2022-08-28T22:23:35.615Z,8.83
2022-08-28T22:28:58.004Z,7.63
2022-08-28T22:34:21.345Z,9.07
2022-08-28T22:39:44.321Z,6.97
2022-08-28T22:45:06.724Z,6.50
2022-08-28T22:50:30.134Z,7.73
2022-08-28T22:55:52.984Z,9.40
2022-08-28T23:01:20.023Z,8.27
2022-08-28T23:06:43.073Z,7.33
2022-08-28T23:12:05.329Z,8.18
2022-08-28T23:17:27.523Z,8.50
2022-08-28T23:22:56.414Z,10.53
2022-08-28T23:28:16.799Z,8.50
2022-08-28T23:33:39.429Z,9.80
2022-08-28T23:39:02.108Z,8.50
2022-08-28T23:44:25.717Z,8.57
2022-08-28T23:49:49.286Z,11.20
2022-08-28T23:55:12.882Z,11.18
